Time;durP1;ratioP1;P1;durP2;ratioP2;P2;SDS_P1;SDS_P2;PMS_P1;PMS_P2;Temp;Humidity;BMP_temperature;BMP_pressure;BME280_temperature;BME280_humidity;BME280_pressure;Samples;Min_cycle;Max_cycle;Signal;HPM_P1;HPM_P2
2021/05/12 00:00:53;;;;;;;6.07;1.80;;;512.60;1152.00;;;;;;5094088;28;20530;-76
2021/05/12 00:03:19;;;;;;;5.55;1.70;;;512.60;1152.00;;;;;;5094245;28;20111;-76
2021/05/12 00:05:44;;;;;;;3.80;1.70;;;512.40;1152.00;;;;;;5092630;28;20028;-68
2021/05/12 00:08:10;;;;;;;6.80;1.63;;;512.40;1152.00;;;;;;5092416;28;20024;-74
2021/05/12 00:10:36;;;;;;;6.95;2.20;;;512.40;1152.00;;;;;;5092533;28;20070;-77
2021/05/12 00:13:02;;;;;;;6.13;1.83;;;512.40;1152.00;;;;;;5092116;28;20044;-79
2021/05/12 00:15:28;;;;;;;4.50;1.67;;;512.40;1152.00;;;;;;5092499;28;20024;-77
2021/05/12 00:17:54;;;;;;;5.97;1.60;;;512.40;1152.00;;;;;;5094027;28;20438;-68
2021/05/12 00:20:28;;;;;;;14.18;1.85;;;512.30;1152.00;;;;;;5094056;28;20465;-77
2021/05/12 00:22:59;;;;;;;5.05;1.48;;;512.30;1152.00;;;;;;5094276;28;20028;-78
2021/05/12 00:25:26;;;;;;;5.07;1.75;;;512.30;1152.00;;;;;;5094622;28;20019;-77
2021/05/12 00:27:52;;;;;;;4.95;1.60;;;512.30;1152.00;;;;;;5094147;28;20028;-77
2021/05/12 00:30:20;;;;;;;6.40;1.35;;;512.30;1152.00;;;;;;5093875;28;20031;-77
2021/05/12 00:32:46;;;;;;;3.25;1.63;;;512.30;1152.00;;;;;;5093876;28;20468;-77
2021/05/12 00:35:13;;;;;;;3.88;1.88;;;512.30;1177.60;;;;;;5093949;28;20082;-77
2021/05/12 00:37:40;;;;;;;7.78;1.70;;;512.20;1177.60;;;;;;5094110;28;20039;-71
2021/05/12 00:40:08;;;;;;;6.65;1.90;;;512.20;1152.00;;;;;;5093605;28;20480;-67
2021/05/12 00:42:35;;;;;;;5.72;1.63;;;512.20;1152.00;;;;;;5093780;28;20020;-76
2021/05/12 00:45:03;;;;;;;4.97;1.50;;;512.20;1177.60;;;;;;5092823;28;20103;-78
2021/05/12 00:47:31;;;;;;;4.82;1.80;;;512.10;1152.00;;;;;;5093610;28;20031;-77
2021/05/12 00:49:57;;;;;;;8.35;1.60;;;512.20;1152.00;;;;;;5093937;28;20081;-77
2021/05/12 00:52:24;;;;;;;4.43;1.80;;;512.10;1152.00;;;;;;5093595;28;20038;-77
2021/05/12 00:54:50;;;;;;;5.50;2.10;;;512.10;1177.60;;;;;;5093822;28;20090;-67
2021/05/12 00:57:16;;;;;;;6.57;1.67;;;512.00;1152.00;;;;;;5093517;28;20497;-70
2021/05/12 00:59:44;;;;;;;5.65;1.60;;;512.00;1152.00;;;;;;5093496;28;20389;-78
2021/05/12 01:02:10;;;;;;;17.40;2.40;;;512.00;1152.00;;;;;;5092323;28;20077;-77
2021/05/12 01:04:37;;;;;;;5.93;1.50;;;512.00;1152.00;;;;;;5093469;28;20464;-67
2021/05/12 01:07:05;;;;;;;4.72;1.80;;;512.00;1152.00;;;;;;5093505;28;20039;-71
2021/05/12 01:09:31;;;;;;;7.90;1.88;;;512.00;1177.60;;;;;;5093422;28;20021;-77
2021/05/12 01:11:58;;;;;;;6.78;1.77;;;487.30;1152.00;;;;;;5093196;28;20184;-67
2021/05/12 01:14:25;;;;;;;6.55;1.73;;;487.30;1177.60;;;;;;5093623;28;20490;-68
2021/05/12 01:16:52;;;;;;;7.15;1.65;;;487.30;1177.60;;;;;;5093328;28;20020;-77
2021/05/12 01:19:18;;;;;;;8.90;2.08;;;487.20;1177.60;;;;;;5093628;28;20024;-78
2021/05/12 01:21:44;;;;;;;6.53;1.88;;;487.20;1177.60;;;;;;5093261;28;20028;-77
2021/05/12 01:24:10;;;;;;;7.03;1.85;;;487.20;1177.60;;;;;;5093391;28;20542;-76
2021/05/12 01:26:36;;;;;;;7.13;2.05;;;487.20;1177.60;;;;;;5093309;28;20024;-77
2021/05/12 01:29:04;;;;;;;8.30;1.85;;;487.20;1177.60;;;;;;5093280;28;20513;-77
2021/05/12 01:31:32;;;;;;;11.25;2.30;;;487.20;1177.60;;;;;;5093317;28;20115;-77
2021/05/12 01:33:59;;;;;;;6.35;1.83;;;487.20;1177.60;;;;;;5093484;28;20028;-74
2021/05/12 01:36:26;;;;;;;7.82;1.80;;;487.20;1177.60;;;;;;5093608;28;20107;-77
2021/05/12 01:38:52;;;;;;;7.95;2.20;;;487.20;1177.60;;;;;;5093237;28;20016;-77
2021/05/12 01:41:19;;;;;;;7.40;1.90;;;487.20;1177.60;;;;;;5093528;28;20089;-67
2021/05/12 01:43:46;;;;;;;8.18;2.47;;;487.20;1177.60;;;;;;5093152;28;20038;-77
2021/05/12 01:46:12;;;;;;;5.43;2.15;;;487.10;1177.60;;;;;;5093329;28;20020;-77
2021/05/12 01:48:39;;;;;;;4.90;1.90;;;487.10;1177.60;;;;;;5093010;28;20024;-78
2021/05/12 01:51:06;;;;;;;4.03;1.92;;;487.10;1177.60;;;;;;5093484;28;20491;-70
2021/05/12 01:53:32;;;;;;;6.75;2.45;;;487.10;1177.60;;;;;;5093321;28;20384;-77
2021/05/12 01:55:58;;;;;;;3.58;1.98;;;487.10;1177.60;;;;;;5094705;28;20039;-78
2021/05/12 01:58:25;;;;;;;5.28;2.00;;;487.10;1203.20;;;;;;5097260;28;20017;-76
2021/05/12 02:00:53;;;;;;;6.95;2.00;;;487.10;1203.20;;;;;;5097040;28;20102;-76
2021/05/12 02:03:20;;;;;;;5.15;1.92;;;486.90;1203.20;;;;;;5096654;28;20024;-77
2021/05/12 02:05:47;;;;;;;8.88;1.90;;;487.00;1203.20;;;;;;5096726;28;20028;-76
2021/05/12 02:08:22;;;;;;;4.07;1.90;;;487.00;1203.20;;;;;;5096865;28;20024;-71
2021/05/12 02:10:59;;;;;;;8.88;1.88;;;486.90;1203.20;;;;;;5096904;28;20093;-76
2021/05/12 02:13:26;;;;;;;5.93;2.00;;;486.90;1203.20;;;;;;5096496;28;20044;-77
2021/05/12 02:15:53;;;;;;;7.43;1.80;;;486.90;1203.20;;;;;;5096433;28;20036;-76
2021/05/12 02:18:20;;;;;;;4.75;2.17;;;486.90;1203.20;;;;;;5096429;28;20020;-76
2021/05/12 02:20:46;;;;;;;5.97;2.17;;;486.90;1203.20;;;;;;5096622;28;20032;-77
2021/05/12 02:23:14;;;;;;;8.23;1.88;;;486.90;1203.20;;;;;;5097012;28;20020;-76
2021/05/12 02:25:41;;;;;;;5.30;2.25;;;486.90;1203.20;;;;;;5096809;28;20024;-76
2021/05/12 02:28:08;;;;;;;6.43;1.83;;;486.90;1203.20;;;;;;5096672;28;20032;-77
2021/05/12 02:30:35;;;;;;;5.25;2.13;;;486.80;1203.20;;;;;;5096759;28;20023;-77
2021/05/12 02:33:01;;;;;;;6.22;2.13;;;486.80;1203.20;;;;;;5096337;28;20067;-76
2021/05/12 02:35:27;;;;;;;7.78;1.80;;;486.80;1203.20;;;;;;5096060;28;20062;-76
2021/05/12 02:37:53;;;;;;;5.55;2.42;;;486.80;1228.80;;;;;;5096574;28;20032;-69
2021/05/12 02:40:22;;;;;;;6.95;2.05;;;486.80;1228.80;;;;;;5096102;28;20034;-76
2021/05/12 02:42:49;;;;;;;4.35;2.05;;;486.80;1228.80;;;;;;5096155;28;20031;-76
2021/05/12 02:45:15;;;;;;;7.95;2.08;;;486.70;1228.80;;;;;;5095899;28;20052;-76
2021/05/12 02:47:42;;;;;;;7.15;1.90;;;486.70;1228.80;;;;;;5095775;28;20020;-76
2021/05/12 02:50:11;;;;;;;7.00;2.10;;;486.70;1228.80;;;;;;5095804;28;20481;-77
2021/05/12 02:52:39;;;;;;;5.40;2.15;;;486.70;1228.80;;;;;;5096375;28;20020;-76
2021/05/12 02:55:06;;;;;;;4.63;1.88;;;486.60;1228.80;;;;;;5095916;28;20107;-75
2021/05/12 02:57:32;;;;;;;7.30;2.05;;;486.60;1254.40;;;;;;5094259;28;20381;-75
2021/05/12 02:59:58;;;;;;;6.82;2.03;;;486.60;1254.40;;;;;;5095691;28;20469;-76
2021/05/12 03:02:24;;;;;;;4.55;2.20;;;486.50;1254.40;;;;;;5095753;28;20112;-76
2021/05/12 03:04:50;;;;;;;6.45;1.80;;;486.50;1254.40;;;;;;5095785;28;20392;-76
2021/05/12 03:07:16;;;;;;;5.05;1.83;;;486.50;1280.00;;;;;;5094587;28;20475;-77
2021/05/12 03:09:42;;;;;;;4.13;1.50;;;486.50;1280.00;;;;;;5095338;28;20028;-75
2021/05/12 03:12:08;;;;;;;7.35;1.98;;;486.50;1280.00;;;;;;5095309;28;20451;-67
2021/05/12 03:14:34;;;;;;;7.28;1.77;;;486.50;1305.60;;;;;;5095446;28;20480;-75
2021/05/12 03:17:00;;;;;;;6.38;1.85;;;486.50;1305.60;;;;;;5095876;28;20389;-67
2021/05/12 03:19:26;;;;;;;3.88;1.63;;;486.40;1305.60;;;;;;5095608;28;20020;-75
2021/05/12 03:21:56;;;;;;;5.45;1.67;;;486.40;1305.60;;;;;;5096383;28;20024;-77
2021/05/12 03:24:23;;;;;;;6.65;1.98;;;486.40;1305.60;;;;;;5095606;28;20063;-75
2021/05/12 03:26:49;;;;;;;6.85;1.90;;;486.40;1305.60;;;;;;5095750;28;20468;-75
2021/05/12 03:29:15;;;;;;;8.73;2.88;;;486.40;1305.60;;;;;;5095667;28;20028;-75
2021/05/12 03:31:41;;;;;;;3.42;1.70;;;486.50;1305.60;;;;;;5095292;28;20020;-75
2021/05/12 03:34:07;;;;;;;6.20;2.13;;;486.40;1305.60;;;;;;5095203;28;20048;-75
2021/05/12 03:36:34;;;;;;;13.68;2.03;;;486.40;1305.60;;;;;;5095340;28;20441;-75
2021/05/12 03:39:00;;;;;;;5.78;2.13;;;486.40;1305.60;;;;;;5095004;28;20024;-76
2021/05/12 03:41:26;;;;;;;5.15;1.92;;;486.40;1305.60;;;;;;5094798;28;20020;-77
2021/05/12 03:43:52;;;;;;;8.02;1.80;;;486.40;1331.20;;;;;;5095345;28;20027;-76
2021/05/12 03:46:19;;;;;;;5.05;1.95;;;461.70;1331.20;;;;;;5094669;28;20095;-76
2021/05/12 03:48:45;;;;;;;6.00;1.95;;;461.70;1331.20;;;;;;5094976;28;20082;-76
2021/05/12 03:51:11;;;;;;;6.47;2.20;;;461.60;1331.20;;;;;;5094605;28;20100;-67
2021/05/12 03:53:38;;;;;;;8.80;2.00;;;461.60;1331.20;;;;;;5095032;28;20078;-76
2021/05/12 03:56:04;;;;;;;5.78;1.88;;;486.40;1331.20;;;;;;5094506;28;20077;-77
2021/05/12 03:58:30;;;;;;;4.85;2.10;;;461.60;1356.80;;;;;;5094673;28;20107;-77
2021/05/12 04:00:58;;;;;;;5.05;1.85;;;461.70;1356.80;;;;;;5094679;28;20035;-76
2021/05/12 04:03:24;;;;;;;8.27;1.73;;;486.40;1356.80;;;;;;5094279;28;20016;-66
2021/05/12 04:05:50;;;;;;;6.95;1.80;;;486.40;1331.20;;;;;;5094284;28;20035;-67
2021/05/12 04:08:16;;;;;;;4.88;1.90;;;486.40;1356.80;;;;;;5094485;28;20049;-67
2021/05/12 04:10:41;;;;;;;8.93;1.70;;;486.40;1356.80;;;;;;5094187;28;20020;-76
2021/05/12 04:13:07;;;;;;;5.47;2.03;;;486.40;1356.80;;;;;;5092831;28;20515;-76
2021/05/12 04:15:34;;;;;;;4.65;1.70;;;486.40;1356.80;;;;;;5093967;28;20039;-68
2021/05/12 04:18:00;;;;;;;13.13;2.28;;;461.70;1382.40;;;;;;5094538;28;20024;-75
2021/05/12 04:20:25;;;;;;;5.93;2.05;;;461.60;1382.40;;;;;;5093803;28;20031;-67
2021/05/12 04:22:51;;;;;;;6.25;1.60;;;461.60;1382.40;;;;;;5093969;28;20024;-75
2021/05/12 04:25:21;;;;;;;9.93;2.53;;;461.70;1382.40;;;;;;5094201;28;20060;-76
2021/05/12 04:27:48;;;;;;;9.50;1.63;;;486.40;1382.40;;;;;;5093962;28;20035;-69
2021/05/12 04:30:17;;;;;;;5.35;1.92;;;486.40;1382.40;;;;;;5094182;28;20024;-76
2021/05/12 04:32:44;;;;;;;3.05;1.88;;;486.40;1382.40;;;;;;5094130;28;20032;-76
2021/05/12 04:35:18;;;;;;;9.07;2.00;;;486.40;1382.40;;;;;;5093737;28;20035;-76
2021/05/12 04:37:45;;;;;;;7.82;1.95;;;486.40;1382.40;;;;;;5092600;28;20380;-76
2021/05/12 04:40:11;;;;;;;5.50;1.95;;;486.40;1382.40;;;;;;5093669;28;20028;-76
2021/05/12 04:42:37;;;;;;;6.15;1.70;;;486.40;1408.00;;;;;;5093720;28;20048;-77
2021/05/12 04:45:09;;;;;;;10.55;2.20;;;486.40;1408.00;;;;;;5093550;28;20392;-74
2021/05/12 04:47:35;;;;;;;6.10;1.85;;;486.40;1408.00;;;;;;5093649;28;20508;-67
2021/05/12 04:50:01;;;;;;;6.28;1.80;;;486.40;1408.00;;;;;;5094007;28;20024;-76
2021/05/12 04:52:27;;;;;;;5.03;1.92;;;486.40;1408.00;;;;;;5094380;28;20140;-76
2021/05/12 04:54:53;;;;;;;5.15;2.00;;;486.50;1408.00;;;;;;5093714;28;20533;-74
2021/05/12 04:57:19;;;;;;;5.90;2.17;;;486.50;1433.60;;;;;;5093445;28;20024;-76
2021/05/12 04:59:45;;;;;;;7.47;2.03;;;486.60;1408.00;;;;;;5093444;28;20024;-67
2021/05/12 05:02:12;;;;;;;9.68;2.05;;;486.60;1408.00;;;;;;5093516;28;20012;-76
2021/05/12 05:04:41;;;;;;;8.20;2.08;;;486.70;1433.60;;;;;;5093454;28;20089;-76
2021/05/12 05:07:08;;;;;;;5.75;2.17;;;486.70;1433.60;;;;;;5093739;28;20487;-74
2021/05/12 05:09:35;;;;;;;11.50;2.50;;;486.70;1433.60;;;;;;5093561;28;20056;-76
2021/05/12 05:12:01;;;;;;;6.50;2.55;;;486.70;1433.60;;;;;;5093482;28;20126;-75
2021/05/12 05:14:26;;;;;;;7.82;2.67;;;486.70;1433.60;;;;;;5093559;28;20119;-75
2021/05/12 05:16:53;;;;;;;7.38;2.67;;;486.80;1433.60;;;;;;5093595;28;20028;-76
2021/05/12 05:19:19;;;;;;;8.18;2.47;;;486.80;1433.60;;;;;;5092122;28;20422;-76
2021/05/12 05:21:47;;;;;;;12.70;2.50;;;486.80;1408.00;;;;;;5093488;28;20552;-75
2021/05/12 05:24:13;;;;;;;8.32;3.15;;;486.90;1408.00;;;;;;5093759;28;20115;-76
2021/05/12 05:26:39;;;;;;;9.82;2.85;;;486.90;1433.60;;;;;;5093351;28;20541;-77
2021/05/12 05:29:05;;;;;;;6.28;2.75;;;486.90;1433.60;;;;;;5093367;28;20016;-75
2021/05/12 05:31:31;;;;;;;11.38;3.50;;;486.90;1459.20;;;;;;5095874;28;20027;-76
2021/05/12 05:33:57;;;;;;;11.15;3.42;;;486.90;1459.20;;;;;;5097494;28;20095;-67
2021/05/12 05:36:23;;;;;;;9.05;3.40;;;486.90;1459.20;;;;;;5097359;28;20024;-76
2021/05/12 05:38:48;;;;;;;7.80;3.50;;;486.90;1459.20;;;;;;5097283;28;20023;-76
2021/05/12 05:41:14;;;;;;;7.53;3.45;;;487.00;1459.20;;;;;;5096138;28;20388;-75
2021/05/12 05:43:40;;;;;;;10.30;3.65;;;487.10;1459.20;;;;;;5097415;28;20109;-75
2021/05/12 05:46:06;;;;;;;5.68;3.13;;;487.10;1459.20;;;;;;5097179;28;20372;-75
2021/05/12 05:48:32;;;;;;;9.05;3.60;;;487.10;1459.20;;;;;;5097244;28;20026;-76
2021/05/12 05:50:58;;;;;;;8.50;3.25;;;487.20;1459.20;;;;;;5096934;28;20020;-76
2021/05/12 05:53:24;;;;;;;10.45;3.92;;;487.20;1459.20;;;;;;5096929;28;20506;-77
2021/05/12 05:55:50;;;;;;;16.45;3.78;;;487.20;1484.80;;;;;;5096803;28;20032;-75
2021/05/12 05:58:16;;;;;;;11.25;4.10;;;487.30;1459.20;;;;;;5097335;28;20384;-75
2021/05/12 06:00:43;;;;;;;15.25;5.00;;;512.00;1484.80;;;;;;5096714;28;20476;-77
2021/05/12 06:03:09;;;;;;;11.18;4.53;;;512.10;1484.80;;;;;;5097166;28;20027;-77
2021/05/12 06:05:36;;;;;;;7.45;3.88;;;512.20;1484.80;;;;;;5097356;28;20099;-75
2021/05/12 06:08:02;;;;;;;11.85;4.60;;;512.40;1484.80;;;;;;5096671;28;20024;-77
2021/05/12 06:10:28;;;;;;;18.98;9.18;;;512.50;1459.20;;;;;;5096627;28;20023;-76
2021/05/12 06:12:54;;;;;;;23.65;20.85;;;512.60;1459.20;;;;;;5096628;28;20066;-75
2021/05/12 06:15:23;;;;;;;28.58;15.65;;;512.70;1433.60;;;;;;5096348;28;20148;-77
2021/05/12 06:17:49;;;;;;;12.15;5.75;;;512.90;1459.20;;;;;;5096385;28;20024;-76
2021/05/12 06:20:15;;;;;;;14.63;5.80;;;537.60;1484.80;;;;;;5096627;28;20028;-76
2021/05/12 06:22:42;;;;;;;14.43;4.70;;;537.60;1459.20;;;;;;5096377;28;20132;-76
2021/05/12 06:25:10;;;;;;;9.00;5.07;;;537.80;1459.20;;;;;;5096650;28;20028;-67
2021/05/12 06:27:40;;;;;;;13.18;4.15;;;537.90;1459.20;;;;;;5096273;28;20097;-76
2021/05/12 06:30:07;;;;;;;11.45;4.30;;;538.00;1408.00;;;;;;5096446;28;20051;-76
2021/05/12 06:32:33;;;;;;;8.88;3.55;;;538.10;1408.00;;;;;;5096481;28;20454;-75
2021/05/12 06:34:59;;;;;;;9.90;3.58;;;538.10;1433.60;;;;;;5096018;28;20028;-75
2021/05/12 06:37:25;;;;;;;9.55;3.75;;;538.10;1408.00;;;;;;5095974;28;20541;-72
2021/05/12 06:39:51;;;;;;;11.43;3.17;;;538.10;1433.60;;;;;;5096022;28;20032;-74
2021/05/12 06:42:18;;;;;;;13.00;3.58;;;538.10;1408.00;;;;;;5095847;28;20468;-73
2021/05/12 06:44:44;;;;;;;12.15;3.58;;;538.10;1408.00;;;;;;5096164;28;20160;-72
2021/05/12 06:47:10;;;;;;;8.18;3.40;;;538.10;1408.00;;;;;;5095784;28;20052;-73
2021/05/12 06:49:36;;;;;;;9.40;2.70;;;538.10;1408.00;;;;;;5094577;28;20067;-72
2021/05/12 06:52:02;;;;;;;6.97;3.15;;;538.10;1408.00;;;;;;5095831;28;20107;-72
2021/05/12 06:54:28;;;;;;;8.63;2.92;;;538.10;1408.00;;;;;;5095884;28;20052;-73
2021/05/12 06:56:54;;;;;;;10.75;3.10;;;538.10;1382.40;;;;;;5095931;28;20032;-73
2021/05/12 06:59:19;;;;;;;5.38;2.90;;;538.20;1382.40;;;;;;5095792;28;20103;-74
2021/05/12 07:01:45;;;;;;;5.95;2.97;;;538.20;1382.40;;;;;;5095838;28;20480;-74
2021/05/12 07:04:11;;;;;;;10.23;3.65;;;538.20;1356.80;;;;;;5095880;28;20058;-72
2021/05/12 07:06:37;;;;;;;8.55;2.90;;;538.30;1356.80;;;;;;5095786;28;20020;-73
2021/05/12 07:09:03;;;;;;;7.88;2.53;;;538.30;1382.40;;;;;;5095742;28;20024;-74
2021/05/12 07:11:30;;;;;;;7.80;2.80;;;538.40;1356.80;;;;;;5095748;28;20024;-75
2021/05/12 07:13:56;;;;;;;7.55;2.03;;;538.40;1356.80;;;;;;5095324;28;20484;-74
2021/05/12 07:16:22;;;;;;;5.07;2.60;;;538.50;1331.20;;;;;;5095447;28;20039;-74
2021/05/12 07:18:48;;;;;;;7.35;2.13;;;563.20;1356.80;;;;;;5095649;28;20024;-74
2021/05/12 07:21:14;;;;;;;8.20;2.92;;;563.20;1356.80;;;;;;5095468;28;20028;-76
2021/05/12 07:23:43;;;;;;;16.58;3.65;;;563.20;1356.80;;;;;;5095170;28;20020;-68
2021/05/12 07:26:13;;;;;;;8.00;3.63;;;563.20;1382.40;;;;;;5095249;28;20043;-77
2021/05/12 07:28:39;;;;;;;9.50;4.03;;;563.20;1356.80;;;;;;5095025;28;20028;-76
2021/05/12 07:31:05;;;;;;;11.55;5.68;;;563.20;1382.40;;;;;;5095177;28;20025;-76
2021/05/12 07:33:31;;;;;;;10.02;4.28;;;563.20;1356.80;;;;;;5094615;28;20031;-77
2021/05/12 07:35:57;;;;;;;17.38;7.05;;;563.20;1356.80;;;;;;5094480;28;20028;-71
2021/05/12 07:38:23;;;;;;;24.30;11.43;;;563.20;1356.80;;;;;;5094676;28;20491;-67
2021/05/12 07:40:49;;;;;;;16.13;5.47;;;563.20;1382.40;;;;;;5094274;28;20077;-68
2021/05/12 07:43:15;;;;;;;15.57;6.03;;;563.20;1382.40;;;;;;5094528;28;20099;-68
2021/05/12 07:45:42;;;;;;;6.80;3.35;;;563.20;1382.40;;;;;;5094266;28;20023;-74
2021/05/12 07:48:11;;;;;;;8.15;3.08;;;563.30;1408.00;;;;;;5094162;28;20027;-75
2021/05/12 07:50:38;;;;;;;8.70;3.88;;;563.20;1408.00;;;;;;5093064;28;20513;-66
2021/05/12 07:53:06;;;;;;;14.82;4.35;;;563.30;1408.00;;;;;;5091024;28;20063;-75
2021/05/12 07:55:33;;;;;;;9.38;3.45;;;563.30;1408.00;;;;;;5094455;28;20039;-76
2021/05/12 07:57:59;;;;;;;12.95;5.35;;;563.30;1382.40;;;;;;5094443;28;20028;-76
2021/05/12 08:00:25;;;;;;;7.32;2.88;;;563.30;1408.00;;;;;;5094385;28;20537;-76
2021/05/12 08:02:50;;;;;;;8.07;2.67;;;563.30;1408.00;;;;;;5094029;28;20023;-76
2021/05/12 08:05:16;;;;;;;7.53;2.65;;;563.30;1408.00;;;;;;5093949;28;20024;-75
2021/05/12 08:07:42;;;;;;;6.85;2.47;;;563.30;1408.00;;;;;;5093959;28;20023;-76
2021/05/12 08:10:09;;;;;;;7.45;2.47;;;563.30;1408.00;;;;;;5093741;28;20016;-76
2021/05/12 08:12:35;;;;;;;9.80;2.55;;;563.30;1408.00;;;;;;5093995;28;20433;-70
2021/05/12 08:15:02;;;;;;;10.55;2.70;;;563.30;1408.00;;;;;;5093230;28;20040;-68
2021/05/12 08:17:28;;;;;;;6.70;2.50;;;563.30;1408.00;;;;;;5094407;28;20020;-76
2021/05/12 08:19:56;;;;;;;10.13;2.60;;;563.40;1382.40;;;;;;5093937;28;20066;-76
2021/05/12 08:22:21;;;;;;;11.18;2.88;;;563.40;1408.00;;;;;;5093548;28;20020;-76
2021/05/12 08:24:47;;;;;;;6.85;2.50;;;563.50;1408.00;;;;;;5093699;28;20112;-77
2021/05/12 08:27:13;;;;;;;13.90;3.38;;;563.60;1382.40;;;;;;5093728;28;20114;-71
2021/05/12 08:29:42;;;;;;;9.90;3.08;;;563.60;1408.00;;;;;;5093593;28;20055;-77
2021/05/12 08:32:10;;;;;;;11.55;3.40;;;563.60;1408.00;;;;;;5094164;28;20431;-67
2021/05/12 08:34:37;;;;;;;10.55;2.92;;;563.60;1433.60;;;;;;5091033;28;20392;-78
2021/05/12 08:37:03;;;;;;;10.38;2.63;;;563.40;1433.60;;;;;;5093454;28;20465;-76
2021/05/12 08:39:29;;;;;;;6.03;2.70;;;563.40;1433.60;;;;;;5093894;28;20469;-77
2021/05/12 08:41:55;;;;;;;6.47;2.25;;;563.30;1433.60;;;;;;5093690;28;20013;-76
2021/05/12 08:44:21;;;;;;;8.95;2.03;;;563.30;1433.60;;;;;;5093293;28;20392;-76
2021/05/12 08:46:49;;;;;;;8.00;2.33;;;563.20;1433.60;;;;;;5093344;28;20020;-78
2021/05/12 08:49:19;;;;;;;11.25;2.65;;;563.20;1433.60;;;;;;5093455;28;20024;-77
2021/05/12 08:51:46;;;;;;;7.25;1.95;;;563.30;1433.60;;;;;;5093432;28;20028;-75
2021/05/12 08:54:13;;;;;;;7.03;2.83;;;563.30;1459.20;;;;;;5093676;28;20608;-77
2021/05/12 08:56:39;;;;;;;8.35;2.80;;;563.40;1459.20;;;;;;5093323;28;20020;-76
2021/05/12 08:59:06;;;;;;;8.70;2.28;;;563.40;1433.60;;;;;;5093209;28;20035;-76
2021/05/12 09:01:33;;;;;;;8.88;2.67;;;563.50;1433.60;;;;;;5093415;28;20044;-71
2021/05/12 09:04:01;;;;;;;8.23;2.50;;;563.60;1433.60;;;;;;5092489;28;20016;-77
2021/05/12 09:06:27;;;;;;;9.10;2.25;;;563.60;1433.60;;;;;;5095698;28;20020;-77
2021/05/12 09:08:54;;;;;;;5.88;2.80;;;563.70;1433.60;;;;;;5097879;28;20099;-77
2021/05/12 09:11:20;;;;;;;7.72;2.35;;;563.70;1459.20;;;;;;5096100;28;20103;-78
2021/05/12 09:13:49;;;;;;;7.82;2.38;;;563.80;1433.60;;;;;;5097165;28;20122;-77
2021/05/12 09:16:26;;;;;;;6.47;2.15;;;563.80;1433.60;;;;;;5095019;28;20024;-77
2021/05/12 09:19:17;;;;;;;4.57;1.90;;;563.80;1408.00;;;;;;5098063;28;20514;-77
2021/05/12 09:21:47;;;;;;;6.57;1.90;;;563.80;1382.40;;;;;;5097778;28;20034;-77
2021/05/12 09:24:31;;;;;;;15.23;2.45;;;563.80;1408.00;;;;;;5097619;28;20028;-75
2021/05/12 09:27:01;;;;;;;;;;;563.90;1408.00;;;;;;5097807;28;20031;-76
2021/05/12 09:29:37;;;;;;;14.48;2.00;;;564.00;1408.00;;;;;;5097484;28;19911;-76
2021/05/12 09:32:25;;;;;;;7.53;2.03;;;563.80;1382.40;;;;;;5097402;28;20028;-76
2021/05/12 09:34:52;;;;;;;4.40;1.80;;;563.70;1408.00;;;;;;5097872;28;20040;-77
2021/05/12 09:37:45;;;;;;;7.72;2.00;;;563.70;1382.40;;;;;;5097891;28;20377;-76
2021/05/12 09:40:17;;;;;;;10.70;7.07;;;563.70;1408.00;;;;;;5096859;28;20043;-76
2021/05/12 09:42:45;;;;;;;5.32;1.98;;;563.80;1408.00;;;;;;5097685;28;20408;-77
2021/05/12 09:45:11;;;;;;;8.27;3.40;;;563.80;1382.40;;;;;;5097216;28;20111;-76
2021/05/12 09:47:38;;;;;;;9.52;2.88;;;563.80;1408.00;;;;;;5097054;28;20138;-77
2021/05/12 09:50:14;;;;;;;7.93;2.13;;;563.80;1433.60;;;;;;5095801;28;20032;-76
2021/05/12 09:52:40;;;;;;;7.10;1.98;;;564.00;1408.00;;;;;;5096579;28;20051;-67
2021/05/12 09:55:09;;;;;;;17.55;2.33;;;588.80;1382.40;;;;;;5095437;28;20089;-77
2021/05/12 09:57:35;;;;;;;6.25;1.90;;;588.90;1356.80;;;;;;5096298;28;20012;-71
2021/05/12 10:00:03;;;;;;;10.27;2.22;;;589.10;1331.20;;;;;;5097902;28;20048;-77
2021/05/12 10:02:45;;;;;;;6.15;1.92;;;589.10;1331.20;;;;;;5097254;28;20020;-77
2021/05/12 10:05:11;;;;;;;10.75;2.08;;;589.00;1305.60;;;;;;5096790;28;20028;-77
2021/05/12 10:07:37;;;;;;;10.70;2.00;;;589.00;1331.20;;;;;;5097209;28;20070;-73
2021/05/12 10:10:03;;;;;;;10.73;1.60;;;588.90;1331.20;;;;;;5097118;28;20020;-74
2021/05/12 10:12:29;;;;;;;16.27;1.75;;;588.80;1305.60;;;;;;5096365;28;20416;-70
2021/05/12 10:14:57;;;;;;;11.25;2.08;;;588.80;1305.60;;;;;;5096325;28;20088;-77
2021/05/12 10:17:25;;;;;;;6.47;1.40;;;588.80;1305.60;;;;;;5097023;28;20039;-75
2021/05/12 10:19:51;;;;;;;18.70;16.15;;;589.00;1305.60;;;;;;5096374;28;20099;-79
2021/05/12 10:22:19;;;;;;;8.50;3.15;;;589.10;1331.20;;;;;;5096108;28;20095;-79
2021/05/12 10:24:47;;;;;;;14.65;2.30;;;589.20;1331.20;;;;;;5093280;28;20024;-77
2021/05/12 10:27:25;;;;;;;7.75;1.83;;;589.20;1305.60;;;;;;5095164;28;20514;-78
2021/05/12 10:29:53;;;;;;;21.45;1.85;;;589.20;1280.00;;;;;;5094261;28;20013;-77
2021/05/12 10:32:30;;;;;;;17.98;1.60;;;589.20;1254.40;;;;;;5096224;28;20047;-79
2021/05/12 10:35:12;;;;;;;10.70;1.55;;;589.20;1280.00;;;;;;5096486;28;20161;-75
2021/05/12 10:37:40;;;;;;;7.43;1.90;;;589.20;1305.60;;;;;;5095508;28;20024;-73
2021/05/12 10:40:25;;;;;;;24.50;2.40;;;589.20;1254.40;;;;;;5096251;28;20020;-74
2021/05/12 10:43:19;;;;;;;10.55;2.00;;;589.20;1254.40;;;;;;5096346;28;20107;-69
2021/05/12 10:45:50;;;;;;;6.78;1.50;;;589.30;1280.00;;;;;;5076113;28;20027;-72
2021/05/12 10:48:49;;;;;;;28.55;2.85;;;589.30;1254.40;;;;;;5074765;28;20067;-77
2021/05/12 10:51:21;;;;;;;3.88;1.33;;;589.30;1254.40;;;;;;5094771;28;20046;-74
2021/05/12 10:53:52;;;;;;;9.82;1.63;;;589.20;1228.80;;;;;;5094043;28;20023;-74
2021/05/12 10:56:23;;;;;;;6.53;1.65;;;589.10;1254.40;;;;;;5093943;28;20043;-74
2021/05/12 10:59:15;;;;;;;45.40;40.00;;;589.20;1305.60;;;;;;5095905;28;20012;-76
2021/05/12 11:01:41;;;;;;;17.88;10.18;;;589.20;1382.40;;;;;;5087448;28;20357;-78
2021/05/12 11:04:08;;;;;;;6.43;1.70;;;589.10;1356.80;;;;;;5096167;28;20023;-75
2021/05/12 11:06:34;;;;;;;11.48;2.05;;;588.90;1382.40;;;;;;5096271;28;20437;-69
2021/05/12 11:09:05;;;;;;;7.55;1.60;;;588.80;1382.40;;;;;;5096048;28;20028;-77
2021/05/12 11:11:31;;;;;;;6.80;1.60;;;588.80;1382.40;;;;;;5095588;28;20020;-74
2021/05/12 11:14:23;;;;;;;7.15;1.92;;;564.10;1408.00;;;;;;5094459;28;20042;-75
2021/05/12 11:17:09;;;;;;;14.18;4.60;;;563.90;1408.00;;;;;;5095691;28;20468;-77
2021/05/12 11:20:02;;;;;;;12.45;4.88;;;563.80;1433.60;;;;;;5094982;28;20032;-76
2021/05/12 11:25:10;;;;;;;8.52;3.50;;;563.70;1510.40;;;;;;5095128;28;20059;-76
2021/05/12 11:33:22;;;;;;;21.55;18.35;;;563.30;1561.60;;;;;;5093430;28;20043;-75
2021/05/12 11:35:53;;;;;;;40.60;22.48;;;563.30;1561.60;;;;;;5092272;28;20058;-75
2021/05/12 11:38:19;;;;;;;75.05;11.93;;;563.20;1536.00;;;;;;5094486;28;20016;-75
2021/05/12 11:41:09;;;;;;;12.45;2.45;;;538.20;1536.00;;;;;;5091699;28;20016;-74
2021/05/12 11:43:41;;;;;;;14.95;3.92;;;538.10;1561.60;;;;;;5081361;28;20392;-75
2021/05/12 11:46:19;;;;;;;32.78;3.47;;;538.10;1561.60;;;;;;5091948;28;20502;-75
2021/05/12 11:48:53;;;;;;;9.73;2.40;;;538.10;1536.00;;;;;;5091700;28;20019;-75
2021/05/12 11:51:27;;;;;;;;;;;538.10;1484.80;;;;;;5094596;28;20031;-72
2021/05/12 11:53:53;;;;;;;9.32;1.77;;;538.30;1484.80;;;;;;5092425;28;20445;-75
2021/05/12 11:56:20;;;;;;;12.50;1.40;;;538.20;1433.60;;;;;;5092599;28;20075;-75
2021/05/12 11:58:53;;;;;;;15.20;3.80;;;538.20;1408.00;;;;;;5092158;28;20024;-71
2021/05/12 12:01:19;;;;;;;23.52;6.72;;;538.20;1433.60;;;;;;5092994;28;20028;-76
2021/05/12 12:04:13;;;;;;;8.73;1.48;;;538.10;1408.00;;;;;;5095095;28;20025;-75
2021/05/12 12:06:45;;;;;;;37.90;2.88;;;538.00;1408.00;;;;;;5093003;28;20116;-74
2021/05/12 12:09:12;;;;;;;7.93;1.50;;;538.20;1382.40;;;;;;5091813;28;20062;-76
2021/05/12 12:11:40;;;;;;;3.10;1.13;;;538.50;1382.40;;;;;;5094166;28;20020;-77
2021/05/12 12:14:07;;;;;;;33.22;2.33;;;563.30;1356.80;;;;;;5094546;28;20028;-76
2021/05/12 12:16:38;;;;;;;20.67;3.50;;;563.50;1382.40;;;;;;5094216;28;20488;-76
2021/05/12 12:19:11;;;;;;;8.07;0.80;;;563.40;1382.40;;;;;;5093402;28;20024;-71
2021/05/12 12:21:37;;;;;;;1.83;0.57;;;563.30;1331.20;;;;;;5093693;28;20047;-76
2021/05/12 12:24:12;;;;;;;2.50;0.93;;;563.30;1382.40;;;;;;5093791;28;20051;-74
2021/05/12 12:26:42;;;;;;;3.58;0.63;;;563.30;1331.20;;;;;;5093560;28;20020;-75
2021/05/12 12:29:10;;;;;;;9.80;2.15;;;563.40;1356.80;;;;;;5093947;28;20024;-76